Airfield :
LOGIN :

Register | Disclaimer

   EN    FR    IT 

 










Legend :    VFR   Marginal VFR   IFR   Intensive IFR   Very Intensive IFR
Visi :
Ceiling :
>= 8 km
>= 3000ft
5 to 8 km
1000 to 3000 ft
1500m to 5 km
500 to 1000 ft
800 to 1500m
200 to 500 ft
< 800m
< 200 ft
Symbols :   Thunderstorms  Fog  Heavy snow  Heavy precipitations  Wind > 20 kt
SIGMETs :     Misc.  Thunderstorms  Icing  Turbulence  Mountain Waves  Volcanic Ashes






- Airport Elevation : 52 ft
- IATA code : RNN


EKRN - Bornholm Ronne

CURRENT METAR :
  • 070920Z AUTO 27012KT 9999 -SHRA BKN022/// 07/04 Q1005

EXPIRED METARs :
  • 070850Z AUTO 26013KT 9999 FEW018/// BKN033/// 07/03 Q1005
  • 070820Z AUTO 26013KT 9999 SCT014/// BKN041/// 06/03 Q1005
  • 070750Z AUTO 26012KT 9999 FEW014/// OVC020/// 06/03 Q1004
  • 070720Z AUTO 26013KT 9999 FEW014/// OVC030/// 07/03 Q1004
  • 070650Z AUTO 25010KT 9999 BKN014/// 06/03 Q1004
  • 070620Z AUTO 26012KT 9999 BKN017/// 06/03 Q1004

TAF TAF EKRN
Valid from the 07 at 09:00 until the 07 at 18:00 UTC


070824Z 0709/0718 27012KT 9999 BKN020
TEMPO 0709/0714 SHRA BKN014 SCT015CB
TEMPO 0714/0718 4000 SHRA BKN008 BKN015CB



MET'MAP, your aeronautical weather chart ! - Copyright ORBIFLY December 2007 - Disclaimer

ORBIFLY MET'MAP TEAM :

Programming & Development : Alexandra Zaïnal
Concept & original design : Baudouin d'Aumeries
Assistance for programming : Marc-Olivier Méhu
Technical & hardware support : Manuel Goepfert

Contact : metmap@orbifly.com




SOURCES & CREDITS :

   NOAA